sensor_id;sensor_type;location;lat;lon;timestamp;temperature;humidity
33645;DHT22;19986;48.190;16.366;2023-06-14T00:00:22;19.00;95.00
33645;DHT22;19986;48.190;16.366;2023-06-14T00:02:48;18.90;95.10
33645;DHT22;19986;48.190;16.366;2023-06-14T00:05:14;18.90;95.20
33645;DHT22;19986;48.190;16.366;2023-06-14T00:07:41;18.90;95.30
33645;DHT22;19986;48.190;16.366;2023-06-14T00:10:11;18.90;95.30
33645;DHT22;19986;48.190;16.366;2023-06-14T00:12:38;18.90;95.30
33645;DHT22;19986;48.190;16.366;2023-06-14T00:15:05;18.90;95.50
33645;DHT22;19986;48.190;16.366;2023-06-14T00:17:31;18.90;95.60
33645;DHT22;19986;48.190;16.366;2023-06-14T00:20:00;18.80;95.60
33645;DHT22;19986;48.190;16.366;2023-06-14T00:22:26;18.80;95.70
33645;DHT22;19986;48.190;16.366;2023-06-14T00:24:54;18.80;95.70
33645;DHT22;19986;48.190;16.366;2023-06-14T00:27:20;18.70;95.80
33645;DHT22;19986;48.190;16.366;2023-06-14T00:29:47;18.70;96.00
33645;DHT22;19986;48.190;16.366;2023-06-14T00:32:13;18.70;96.10
33645;DHT22;19986;48.190;16.366;2023-06-14T00:34:40;18.60;96.30
33645;DHT22;19986;48.190;16.366;2023-06-14T00:37:07;18.50;96.40
33645;DHT22;19986;48.190;16.366;2023-06-14T00:39:33;18.50;96.50
33645;DHT22;19986;48.190;16.366;2023-06-14T00:42:00;18.60;96.60
33645;DHT22;19986;48.190;16.366;2023-06-14T00:44:26;18.50;96.60
33645;DHT22;19986;48.190;16.366;2023-06-14T00:46:53;18.50;96.60
33645;DHT22;19986;48.190;16.366;2023-06-14T00:49:19;18.60;96.70
33645;DHT22;19986;48.190;16.366;2023-06-14T00:51:45;18.60;96.60
33645;DHT22;19986;48.190;16.366;2023-06-14T00:54:11;18.70;96.60
33645;DHT22;19986;48.190;16.366;2023-06-14T00:56:37;18.70;96.60
33645;DHT22;19986;48.190;16.366;2023-06-14T00:59:04;18.70;96.60
33645;DHT22;19986;48.190;16.366;2023-06-14T01:01:33;18.70;96.70
33645;DHT22;19986;48.190;16.366;2023-06-14T01:04:00;18.70;96.70
33645;DHT22;19986;48.190;16.366;2023-06-14T01:09:18;18.60;96.80
33645;DHT22;19986;48.190;16.366;2023-06-14T01:12:10;18.60;96.90
33645;DHT22;19986;48.190;16.366;2023-06-14T01:14:38;18.50;97.00
33645;DHT22;19986;48.190;16.366;2023-06-14T01:17:04;18.50;97.10
33645;DHT22;19986;48.190;16.366;2023-06-14T01:19:32;18.50;97.10
33645;DHT22;19986;48.190;16.366;2023-06-14T01:22:01;18.50;97.20
33645;DHT22;19986;48.190;16.366;2023-06-14T01:24:27;18.50;97.20
33645;DHT22;19986;48.190;16.366;2023-06-14T01:26:59;18.40;97.30
33645;DHT22;19986;48.190;16.366;2023-06-14T01:29:26;18.50;97.30
33645;DHT22;19986;48.190;16.366;2023-06-14T01:31:56;18.50;97.30
33645;DHT22;19986;48.190;16.366;2023-06-14T01:34:23;18.50;97.40
33645;DHT22;19986;48.190;16.366;2023-06-14T01:36:50;18.40;97.40
33645;DHT22;19986;48.190;16.366;2023-06-14T01:39:17;18.40;97.40
33645;DHT22;19986;48.190;16.366;2023-06-14T01:41:43;18.40;97.50
33645;DHT22;19986;48.190;16.366;2023-06-14T01:44:12;18.40;97.50
33645;DHT22;19986;48.190;16.366;2023-06-14T01:46:42;18.40;97.50
33645;DHT22;19986;48.190;16.366;2023-06-14T01:49:11;18.40;97.50
33645;DHT22;19986;48.190;16.366;2023-06-14T01:51:37;18.40;97.60
33645;DHT22;19986;48.190;16.366;2023-06-14T01:54:03;18.40;97.50
33645;DHT22;19986;48.190;16.366;2023-06-14T01:56:31;18.40;97.60
33645;DHT22;19986;48.190;16.366;2023-06-14T01:58:59;18.30;97.60
33645;DHT22;19986;48.190;16.366;2023-06-14T02:01:25;18.20;97.70
33645;DHT22;19986;48.190;16.366;2023-06-14T02:03:53;18.20;97.90
33645;DHT22;19986;48.190;16.366;2023-06-14T02:06:19;18.10;97.90
33645;DHT22;19986;48.190;16.366;2023-06-14T02:08:45;18.10;98.00
33645;DHT22;19986;48.190;16.366;2023-06-14T02:11:11;18.10;98.00
33645;DHT22;19986;48.190;16.366;2023-06-14T02:13:37;18.10;98.00
33645;DHT22;19986;48.190;16.366;2023-06-14T02:16:18;18.10;98.10
33645;DHT22;19986;48.190;16.366;2023-06-14T02:18:44;18.20;98.10
33645;DHT22;19986;48.190;16.366;2023-06-14T02:21:10;18.20;98.00
33645;DHT22;19986;48.190;16.366;2023-06-14T02:23:38;18.20;98.00
33645;DHT22;19986;48.190;16.366;2023-06-14T02:26:05;18.20;98.00
33645;DHT22;19986;48.190;16.366;2023-06-14T02:28:32;18.20;98.00
33645;DHT22;19986;48.190;16.366;2023-06-14T02:30:59;18.20;98.10
33645;DHT22;19986;48.190;16.366;2023-06-14T02:33:26;18.20;98.00
33645;DHT22;19986;48.190;16.366;2023-06-14T02:35:53;18.20;98.00
33645;DHT22;19986;48.190;16.366;2023-06-14T02:38:19;18.20;98.10
33645;DHT22;19986;48.190;16.366;2023-06-14T02:40:45;18.30;98.00
33645;DHT22;19986;48.190;16.366;2023-06-14T02:43:12;18.20;98.30
33645;DHT22;19986;48.190;16.366;2023-06-14T02:45:38;18.20;98.10
33645;DHT22;19986;48.190;16.366;2023-06-14T02:48:04;18.20;98.10
33645;DHT22;19986;48.190;16.366;2023-06-14T02:50:30;18.20;98.10
33645;DHT22;19986;48.190;16.366;2023-06-14T02:52:58;18.10;98.20
33645;DHT22;19986;48.190;16.366;2023-06-14T02:55:24;18.20;98.20
33645;DHT22;19986;48.190;16.366;2023-06-14T02:57:50;18.20;98.20
33645;DHT22;19986;48.190;16.366;2023-06-14T03:00:17;18.20;98.20
33645;DHT22;19986;48.190;16.366;2023-06-14T03:02:44;18.20;98.20
33645;DHT22;19986;48.190;16.366;2023-06-14T03:05:11;18.30;98.20
33645;DHT22;19986;48.190;16.366;2023-06-14T03:07:37;18.30;98.20
33645;DHT22;19986;48.190;16.366;2023-06-14T03:10:08;18.30;98.10
33645;DHT22;19986;48.190;16.366;2023-06-14T03:12:39;18.30;98.20
33645;DHT22;19986;48.190;16.366;2023-06-14T03:15:06;18.30;98.10
33645;DHT22;19986;48.190;16.366;2023-06-14T03:17:35;18.30;98.10
33645;DHT22;19986;48.190;16.366;2023-06-14T03:20:05;18.40;98.10
33645;DHT22;19986;48.190;16.366;2023-06-14T03:22:37;18.40;98.10
33645;DHT22;19986;48.190;16.366;2023-06-14T03:25:08;18.50;98.20
33645;DHT22;19986;48.190;16.366;2023-06-14T03:27:36;18.40;98.20
33645;DHT22;19986;48.190;16.366;2023-06-14T03:30:02;18.30;98.30
33645;DHT22;19986;48.190;16.366;2023-06-14T03:32:29;18.40;98.30
33645;DHT22;19986;48.190;16.366;2023-06-14T03:34:58;18.40;98.30
33645;DHT22;19986;48.190;16.366;2023-06-14T03:37:25;18.40;98.30
33645;DHT22;19986;48.190;16.366;2023-06-14T03:39:52;18.40;98.30
33645;DHT22;19986;48.190;16.366;2023-06-14T03:42:18;18.50;98.30
33645;DHT22;19986;48.190;16.366;2023-06-14T03:44:44;18.50;98.40
33645;DHT22;19986;48.190;16.366;2023-06-14T03:47:10;18.50;98.30
33645;DHT22;19986;48.190;16.366;2023-06-14T03:49:37;18.50;98.30
33645;DHT22;19986;48.190;16.366;2023-06-14T03:52:04;18.50;98.40
33645;DHT22;19986;48.190;16.366;2023-06-14T03:54:30;18.40;98.50
33645;DHT22;19986;48.190;16.366;2023-06-14T03:56:59;18.50;98.30
33645;DHT22;19986;48.190;16.366;2023-06-14T03:59:26;18.50;98.30
33645;DHT22;19986;48.190;16.366;2023-06-14T04:01:54;18.50;98.30
33645;DHT22;19986;48.190;16.366;2023-06-14T04:04:21;18.50;98.30
33645;DHT22;19986;48.190;16.366;2023-06-14T04:06:47;18.60;98.50
33645;DHT22;19986;48.190;16.366;2023-06-14T04:09:14;18.60;98.60
33645;DHT22;19986;48.190;16.366;2023-06-14T04:11:40;18.60;98.20
33645;DHT22;19986;48.190;16.366;2023-06-14T04:14:06;18.60;97.90
33645;DHT22;19986;48.190;16.366;2023-06-14T04:16:33;18.60;98.00
33645;DHT22;19986;48.190;16.366;2023-06-14T04:18:59;18.60;98.00
33645;DHT22;19986;48.190;16.366;2023-06-14T04:21:25;18.60;97.90
33645;DHT22;19986;48.190;16.366;2023-06-14T04:23:53;18.50;97.70
33645;DHT22;19986;48.190;16.366;2023-06-14T04:26:21;18.60;97.80
33645;DHT22;19986;48.190;16.366;2023-06-14T04:28:49;18.70;97.70
33645;DHT22;19986;48.190;16.366;2023-06-14T04:31:16;18.80;97.60
33645;DHT22;19986;48.190;16.366;2023-06-14T04:33:43;19.00;97.50
33645;DHT22;19986;48.190;16.366;2023-06-14T04:36:10;19.10;97.20
33645;DHT22;19986;48.190;16.366;2023-06-14T04:38:38;19.20;97.00
33645;DHT22;19986;48.190;16.366;2023-06-14T04:41:05;19.20;97.10
33645;DHT22;19986;48.190;16.366;2023-06-14T04:43:38;19.20;97.20
33645;DHT22;19986;48.190;16.366;2023-06-14T04:46:05;19.20;97.20
33645;DHT22;19986;48.190;16.366;2023-06-14T04:48:32;19.30;97.20
33645;DHT22;19986;48.190;16.366;2023-06-14T04:50:58;19.30;97.10
33645;DHT22;19986;48.190;16.366;2023-06-14T04:53:24;19.30;97.20
33645;DHT22;19986;48.190;16.366;2023-06-14T04:55:50;19.40;97.20
33645;DHT22;19986;48.190;16.366;2023-06-14T04:58:16;19.50;97.00
33645;DHT22;19986;48.190;16.366;2023-06-14T05:00:42;19.60;97.00
33645;DHT22;19986;48.190;16.366;2023-06-14T05:03:11;19.80;96.90
33645;DHT22;19986;48.190;16.366;2023-06-14T05:05:40;19.90;96.60
33645;DHT22;19986;48.190;16.366;2023-06-14T05:08:07;20.00;96.70
33645;DHT22;19986;48.190;16.366;2023-06-14T05:10:34;20.50;96.50
33645;DHT22;19986;48.190;16.366;2023-06-14T05:13:02;21.00;95.80
33645;DHT22;19986;48.190;16.366;2023-06-14T05:15:29;21.70;95.40
33645;DHT22;19986;48.190;16.366;2023-06-14T05:17:56;22.90;94.40
33645;DHT22;19986;48.190;16.366;2023-06-14T05:20:24;24.40;92.50
33645;DHT22;19986;48.190;16.366;2023-06-14T05:22:59;26.10;91.00
33645;DHT22;19986;48.190;16.366;2023-06-14T05:25:25;27.80;88.30
33645;DHT22;19986;48.190;16.366;2023-06-14T05:27:52;28.00;84.00
33645;DHT22;19986;48.190;16.366;2023-06-14T05:30:18;26.80;84.30
33645;DHT22;19986;48.190;16.366;2023-06-14T05:32:43;25.50;86.00
33645;DHT22;19986;48.190;16.366;2023-06-14T05:35:10;24.40;88.20
33645;DHT22;19986;48.190;16.366;2023-06-14T05:37:37;23.60;90.00
33645;DHT22;19986;48.190;16.366;2023-06-14T05:40:04;23.20;90.80
33645;DHT22;19986;48.190;16.366;2023-06-14T05:42:32;22.90;91.10
33645;DHT22;19986;48.190;16.366;2023-06-14T05:44:59;22.70;91.20
33645;DHT22;19986;48.190;16.366;2023-06-14T05:47:26;22.40;91.50
33645;DHT22;19986;48.190;16.366;2023-06-14T05:49:53;22.20;91.70
33645;DHT22;19986;48.190;16.366;2023-06-14T05:52:20;22.00;92.10
33645;DHT22;19986;48.190;16.366;2023-06-14T05:54:47;21.90;92.40
33645;DHT22;19986;48.190;16.366;2023-06-14T05:57:13;21.80;92.60
33645;DHT22;19986;48.190;16.366;2023-06-14T05:59:38;21.80;92.50
33645;DHT22;19986;48.190;16.366;2023-06-14T06:02:05;21.70;92.60
33645;DHT22;19986;48.190;16.366;2023-06-14T06:04:31;21.60;92.70
33645;DHT22;19986;48.190;16.366;2023-06-14T06:06:57;21.50;92.70
33645;DHT22;19986;48.190;16.366;2023-06-14T06:09:23;21.50;92.70
33645;DHT22;19986;48.190;16.366;2023-06-14T06:11:49;21.50;92.80
33645;DHT22;19986;48.190;16.366;2023-06-14T06:14:15;21.60;92.70
33645;DHT22;19986;48.190;16.366;2023-06-14T06:16:41;21.60;92.60
33645;DHT22;19986;48.190;16.366;2023-06-14T06:19:07;21.60;92.80
33645;DHT22;19986;48.190;16.366;2023-06-14T06:21:33;21.70;92.80
33645;DHT22;19986;48.190;16.366;2023-06-14T06:23:59;21.70;92.90
33645;DHT22;19986;48.190;16.366;2023-06-14T06:26:29;21.70;92.90
33645;DHT22;19986;48.190;16.366;2023-06-14T06:28:56;21.70;93.00
33645;DHT22;19986;48.190;16.366;2023-06-14T06:31:23;21.80;93.00
33645;DHT22;19986;48.190;16.366;2023-06-14T06:33:49;21.80;93.40
33645;DHT22;19986;48.190;16.366;2023-06-14T06:36:16;21.70;93.10
33645;DHT22;19986;48.190;16.366;2023-06-14T06:38:42;21.60;93.20
33645;DHT22;19986;48.190;16.366;2023-06-14T06:41:09;21.40;93.30
33645;DHT22;19986;48.190;16.366;2023-06-14T06:43:39;21.40;93.30
33645;DHT22;19986;48.190;16.366;2023-06-14T06:46:05;21.40;93.40
33645;DHT22;19986;48.190;16.366;2023-06-14T06:48:31;21.60;93.30
33645;DHT22;19986;48.190;16.366;2023-06-14T06:50:57;21.60;93.40
33645;DHT22;19986;48.190;16.366;2023-06-14T06:53:23;21.70;93.20
33645;DHT22;19986;48.190;16.366;2023-06-14T06:55:49;21.70;93.30
33645;DHT22;19986;48.190;16.366;2023-06-14T06:58:15;21.70;93.40
33645;DHT22;19986;48.190;16.366;2023-06-14T07:00:41;21.70;93.50
33645;DHT22;19986;48.190;16.366;2023-06-14T07:03:07;21.70;93.40
33645;DHT22;19986;48.190;16.366;2023-06-14T07:05:33;21.60;93.40
33645;DHT22;19986;48.190;16.366;2023-06-14T07:08:00;21.50;93.60
33645;DHT22;19986;48.190;16.366;2023-06-14T07:10:26;21.40;93.60
33645;DHT22;19986;48.190;16.366;2023-06-14T07:12:52;21.40;93.70
33645;DHT22;19986;48.190;16.366;2023-06-14T07:15:18;21.60;93.60
33645;DHT22;19986;48.190;16.366;2023-06-14T07:17:44;21.70;93.40
33645;DHT22;19986;48.190;16.366;2023-06-14T07:20:11;21.80;93.20
33645;DHT22;19986;48.190;16.366;2023-06-14T07:22:41;21.90;93.30
33645;DHT22;19986;48.190;16.366;2023-06-14T07:25:09;22.00;93.20
33645;DHT22;19986;48.190;16.366;2023-06-14T07:27:38;22.00;93.30
33645;DHT22;19986;48.190;16.366;2023-06-14T07:30:05;22.00;93.20
33645;DHT22;19986;48.190;16.366;2023-06-14T07:32:32;22.00;93.50
33645;DHT22;19986;48.190;16.366;2023-06-14T07:34:58;22.10;93.40
33645;DHT22;19986;48.190;16.366;2023-06-14T07:37:24;22.40;92.90
33645;DHT22;19986;48.190;16.366;2023-06-14T07:39:50;22.70;92.80
33645;DHT22;19986;48.190;16.366;2023-06-14T07:42:16;23.00;92.30
33645;DHT22;19986;48.190;16.366;2023-06-14T07:44:42;23.50;91.90
33645;DHT22;19986;48.190;16.366;2023-06-14T07:47:08;23.80;91.20
33645;DHT22;19986;48.190;16.366;2023-06-14T07:49:34;23.70;91.00
33645;DHT22;19986;48.190;16.366;2023-06-14T07:52:00;23.80;91.00
33645;DHT22;19986;48.190;16.366;2023-06-14T07:54:26;23.80;90.90
33645;DHT22;19986;48.190;16.366;2023-06-14T07:56:53;24.10;90.90
33645;DHT22;19986;48.190;16.366;2023-06-14T07:59:20;24.50;90.40
33645;DHT22;19986;48.190;16.366;2023-06-14T08:01:46;24.40;90.10
33645;DHT22;19986;48.190;16.366;2023-06-14T08:04:14;24.30;90.10
33645;DHT22;19986;48.190;16.366;2023-06-14T08:06:40;24.20;90.10
33645;DHT22;19986;48.190;16.366;2023-06-14T08:09:12;24.20;90.50
33645;DHT22;19986;48.190;16.366;2023-06-14T08:11:38;24.20;90.70
33645;DHT22;19986;48.190;16.366;2023-06-14T08:14:04;24.40;90.60
33645;DHT22;19986;48.190;16.366;2023-06-14T08:16:30;24.20;90.30
33645;DHT22;19986;48.190;16.366;2023-06-14T08:18:56;24.20;90.60
33645;DHT22;19986;48.190;16.366;2023-06-14T08:21:22;24.20;90.70
33645;DHT22;19986;48.190;16.366;2023-06-14T08:23:48;24.50;90.60
33645;DHT22;19986;48.190;16.366;2023-06-14T08:26:14;24.90;90.60
33645;DHT22;19986;48.190;16.366;2023-06-14T08:28:40;26.00;90.20
33645;DHT22;19986;48.190;16.366;2023-06-14T08:31:05;27.70;87.10
33645;DHT22;19986;48.190;16.366;2023-06-14T08:33:31;29.80;83.10
33645;DHT22;19986;48.190;16.366;2023-06-14T08:36:00;31.00;79.80
33645;DHT22;19986;48.190;16.366;2023-06-14T08:38:28;30.70;77.30
33645;DHT22;19986;48.190;16.366;2023-06-14T08:41:01;29.60;78.20
33645;DHT22;19986;48.190;16.366;2023-06-14T08:43:28;28.80;80.30
33645;DHT22;19986;48.190;16.366;2023-06-14T08:46:09;28.40;81.00
33645;DHT22;19986;48.190;16.366;2023-06-14T08:48:38;28.00;81.40
33645;DHT22;19986;48.190;16.366;2023-06-14T08:51:04;27.90;82.10
33645;DHT22;19986;48.190;16.366;2023-06-14T08:53:31;27.80;82.00
33645;DHT22;19986;48.190;16.366;2023-06-14T08:56:02;28.00;81.00
33645;DHT22;19986;48.190;16.366;2023-06-14T08:58:34;28.00;81.80
33645;DHT22;19986;48.190;16.366;2023-06-14T09:01:03;29.20;79.90
33645;DHT22;19986;48.190;16.366;2023-06-14T09:03:33;29.60;77.60
33645;DHT22;19986;48.190;16.366;2023-06-14T09:05:59;29.40;78.20
33645;DHT22;19986;48.190;16.366;2023-06-14T09:08:26;29.80;78.70
33645;DHT22;19986;48.190;16.366;2023-06-14T09:10:56;29.80;78.50
33645;DHT22;19986;48.190;16.366;2023-06-14T09:13:22;31.20;77.80
33645;DHT22;19986;48.190;16.366;2023-06-14T09:15:48;33.00;75.10
33645;DHT22;19986;48.190;16.366;2023-06-14T09:18:15;34.50;72.20
33645;DHT22;19986;48.190;16.366;2023-06-14T09:20:41;35.30;69.60
33645;DHT22;19986;48.190;16.366;2023-06-14T09:23:07;36.00;68.70
33645;DHT22;19986;48.190;16.366;2023-06-14T09:25:42;36.60;67.30
33645;DHT22;19986;48.190;16.366;2023-06-14T09:28:09;37.00;64.90
33645;DHT22;19986;48.190;16.366;2023-06-14T09:30:37;36.80;64.80
33645;DHT22;19986;48.190;16.366;2023-06-14T09:33:03;36.70;64.60
33645;DHT22;19986;48.190;16.366;2023-06-14T09:35:31;36.50;63.80
33645;DHT22;19986;48.190;16.366;2023-06-14T09:37:59;35.80;64.00
33645;DHT22;19986;48.190;16.366;2023-06-14T09:40:26;35.30;64.80
33645;DHT22;19986;48.190;16.366;2023-06-14T09:42:53;34.40;66.50
33645;DHT22;19986;48.190;16.366;2023-06-14T09:45:20;34.70;66.50
33645;DHT22;19986;48.190;16.366;2023-06-14T09:47:50;35.20;65.10
33645;DHT22;19986;48.190;16.366;2023-06-14T09:50:18;35.90;64.40
33645;DHT22;19986;48.190;16.366;2023-06-14T09:52:47;36.10;63.20
33645;DHT22;19986;48.190;16.366;2023-06-14T09:55:16;36.20;63.60
33645;DHT22;19986;48.190;16.366;2023-06-14T09:57:43;36.70;62.70
33645;DHT22;19986;48.190;16.366;2023-06-14T10:00:13;37.10;62.10
33645;DHT22;19986;48.190;16.366;2023-06-14T10:02:42;37.50;61.40
33645;DHT22;19986;48.190;16.366;2023-06-14T10:05:15;37.90;60.20
33645;DHT22;19986;48.190;16.366;2023-06-14T10:08:06;37.70;60.30
33645;DHT22;19986;48.190;16.366;2023-06-14T10:10:33;37.60;60.80
33645;DHT22;19986;48.190;16.366;2023-06-14T10:12:59;37.40;61.00
33645;DHT22;19986;48.190;16.366;2023-06-14T10:16:27;37.10;61.60
33645;DHT22;19986;48.190;16.366;2023-06-14T10:21:08;37.90;59.70
33645;DHT22;19986;48.190;16.366;2023-06-14T10:23:42;37.80;59.40
33645;DHT22;19986;48.190;16.366;2023-06-14T10:26:08;37.40;59.10
33645;DHT22;19986;48.190;16.366;2023-06-14T10:29:05;36.20;59.80
33645;DHT22;19986;48.190;16.366;2023-06-14T10:31:49;35.30;60.90
33645;DHT22;19986;48.190;16.366;2023-06-14T10:37:01;33.40;64.30
33645;DHT22;19986;48.190;16.366;2023-06-14T10:39:28;32.90;66.70
33645;DHT22;19986;48.190;16.366;2023-06-14T10:41:56;33.80;66.10
33645;DHT22;19986;48.190;16.366;2023-06-14T10:46:52;35.00;62.70
33645;DHT22;19986;48.190;16.366;2023-06-14T10:49:19;34.60;62.30
33645;DHT22;19986;48.190;16.366;2023-06-14T10:51:49;34.10;63.10
33645;DHT22;19986;48.190;16.366;2023-06-14T10:54:20;34.20;63.00
33645;DHT22;19986;48.190;16.366;2023-06-14T10:56:47;34.50;61.60
33645;DHT22;19986;48.190;16.366;2023-06-14T10:59:14;35.30;60.40
33645;DHT22;19986;48.190;16.366;2023-06-14T11:04:49;34.20;61.30
33645;DHT22;19986;48.190;16.366;2023-06-14T11:12:47;32.90;64.50
33645;DHT22;19986;48.190;16.366;2023-06-14T11:15:13;32.90;65.00
33645;DHT22;19986;48.190;16.366;2023-06-14T11:17:52;33.10;64.90
33645;DHT22;19986;48.190;16.366;2023-06-14T11:20:25;33.30;65.30
33645;DHT22;19986;48.190;16.366;2023-06-14T11:22:52;33.90;64.60
33645;DHT22;19986;48.190;16.366;2023-06-14T11:25:19;33.50;64.00
33645;DHT22;19986;48.190;16.366;2023-06-14T11:27:45;32.60;63.70
33645;DHT22;19986;48.190;16.366;2023-06-14T11:30:13;31.60;65.50
33645;DHT22;19986;48.190;16.366;2023-06-14T11:32:39;30.80;66.80
33645;DHT22;19986;48.190;16.366;2023-06-14T11:35:07;30.20;66.30
33645;DHT22;19986;48.190;16.366;2023-06-14T11:37:36;29.60;67.30
33645;DHT22;19986;48.190;16.366;2023-06-14T11:40:09;29.40;68.40
33645;DHT22;19986;48.190;16.366;2023-06-14T11:42:37;29.00;68.30
33645;DHT22;19986;48.190;16.366;2023-06-14T11:45:08;28.60;69.60
33645;DHT22;19986;48.190;16.366;2023-06-14T11:47:39;28.30;70.20
33645;DHT22;19986;48.190;16.366;2023-06-14T11:50:09;28.20;71.20
33645;DHT22;19986;48.190;16.366;2023-06-14T11:52:36;28.10;73.00
33645;DHT22;19986;48.190;16.366;2023-06-14T11:55:05;27.90;73.70
33645;DHT22;19986;48.190;16.366;2023-06-14T11:57:35;27.60;73.70
33645;DHT22;19986;48.190;16.366;2023-06-14T12:00:08;27.40;73.60
33645;DHT22;19986;48.190;16.366;2023-06-14T12:02:38;27.40;74.20
33645;DHT22;19986;48.190;16.366;2023-06-14T12:05:06;27.70;74.00
33645;DHT22;19986;48.190;16.366;2023-06-14T12:07:37;28.50;73.40
33645;DHT22;19986;48.190;16.366;2023-06-14T12:10:09;29.30;71.70
33645;DHT22;19986;48.190;16.366;2023-06-14T12:12:36;29.80;70.00
33645;DHT22;19986;48.190;16.366;2023-06-14T12:15:04;30.30;69.50
33645;DHT22;19986;48.190;16.366;2023-06-14T12:17:35;30.50;69.10
33645;DHT22;19986;48.190;16.366;2023-06-14T12:20:06;30.80;67.90
33645;DHT22;19986;48.190;16.366;2023-06-14T12:22:55;30.40;67.50
33645;DHT22;19986;48.190;16.366;2023-06-14T12:25:32;29.80;67.30
33645;DHT22;19986;48.190;16.366;2023-06-14T12:28:09;29.10;68.80
33645;DHT22;19986;48.190;16.366;2023-06-14T12:30:36;28.60;69.50
33645;DHT22;19986;48.190;16.366;2023-06-14T12:33:03;28.20;70.40
33645;DHT22;19986;48.190;16.366;2023-06-14T12:35:29;28.10;70.40
33645;DHT22;19986;48.190;16.366;2023-06-14T12:37:55;27.90;70.60
33645;DHT22;19986;48.190;16.366;2023-06-14T12:40:22;27.90;70.70
33645;DHT22;19986;48.190;16.366;2023-06-14T12:42:48;27.80;70.50
33645;DHT22;19986;48.190;16.366;2023-06-14T12:45:14;28.00;69.80
33645;DHT22;19986;48.190;16.366;2023-06-14T12:47:40;28.00;70.00
33645;DHT22;19986;48.190;16.366;2023-06-14T12:50:07;28.20;69.70
33645;DHT22;19986;48.190;16.366;2023-06-14T12:52:33;28.40;70.20
33645;DHT22;19986;48.190;16.366;2023-06-14T12:55:05;28.60;70.20
33645;DHT22;19986;48.190;16.366;2023-06-14T12:57:31;28.60;70.20
33645;DHT22;19986;48.190;16.366;2023-06-14T13:00:00;28.70;70.00
33645;DHT22;19986;48.190;16.366;2023-06-14T13:02:25;28.90;70.10
33645;DHT22;19986;48.190;16.366;2023-06-14T13:04:52;29.00;70.00
33645;DHT22;19986;48.190;16.366;2023-06-14T13:07:18;28.70;70.60
33645;DHT22;19986;48.190;16.366;2023-06-14T13:09:44;28.60;71.40
33645;DHT22;19986;48.190;16.366;2023-06-14T13:12:11;28.70;71.10
33645;DHT22;19986;48.190;16.366;2023-06-14T13:14:40;28.70;70.70
33645;DHT22;19986;48.190;16.366;2023-06-14T13:17:08;28.60;70.80
33645;DHT22;19986;48.190;16.366;2023-06-14T13:19:34;28.40;71.00
33645;DHT22;19986;48.190;16.366;2023-06-14T13:22:00;28.10;71.50
33645;DHT22;19986;48.190;16.366;2023-06-14T13:24:26;27.70;71.80
33645;DHT22;19986;48.190;16.366;2023-06-14T13:26:54;27.50;72.20
33645;DHT22;19986;48.190;16.366;2023-06-14T13:29:19;27.20;72.50
33645;DHT22;19986;48.190;16.366;2023-06-14T13:31:45;26.90;73.30
33645;DHT22;19986;48.190;16.366;2023-06-14T13:34:12;26.90;74.40
33645;DHT22;19986;48.190;16.366;2023-06-14T13:36:38;26.80;74.80
33645;DHT22;19986;48.190;16.366;2023-06-14T13:39:04;26.80;74.60
33645;DHT22;19986;48.190;16.366;2023-06-14T13:41:31;26.70;74.80
33645;DHT22;19986;48.190;16.366;2023-06-14T13:44:00;26.60;75.10
33645;DHT22;19986;48.190;16.366;2023-06-14T13:46:26;26.60;75.10
33645;DHT22;19986;48.190;16.366;2023-06-14T13:48:52;26.50;75.10
33645;DHT22;19986;48.190;16.366;2023-06-14T13:51:18;26.50;74.90
33645;DHT22;19986;48.190;16.366;2023-06-14T13:53:51;26.30;74.90
33645;DHT22;19986;48.190;16.366;2023-06-14T13:56:19;26.40;75.00
33645;DHT22;19986;48.190;16.366;2023-06-14T13:58:46;26.60;74.80
33645;DHT22;19986;48.190;16.366;2023-06-14T14:01:13;26.60;74.60
33645;DHT22;19986;48.190;16.366;2023-06-14T14:03:39;26.40;74.70
33645;DHT22;19986;48.190;16.366;2023-06-14T14:06:05;26.30;75.00
33645;DHT22;19986;48.190;16.366;2023-06-14T14:08:33;26.20;75.00
33645;DHT22;19986;48.190;16.366;2023-06-14T14:10:59;26.30;75.40
33645;DHT22;19986;48.190;16.366;2023-06-14T14:13:25;26.50;75.20
33645;DHT22;19986;48.190;16.366;2023-06-14T14:15:51;26.80;74.80
33645;DHT22;19986;48.190;16.366;2023-06-14T14:18:18;27.20;74.60
33645;DHT22;19986;48.190;16.366;2023-06-14T14:20:48;27.30;74.80
33645;DHT22;19986;48.190;16.366;2023-06-14T14:23:14;27.10;74.60
33645;DHT22;19986;48.190;16.366;2023-06-14T14:25:40;27.10;74.40
33645;DHT22;19986;48.190;16.366;2023-06-14T14:28:06;27.10;74.40
33645;DHT22;19986;48.190;16.366;2023-06-14T14:30:32;27.10;74.30
33645;DHT22;19986;48.190;16.366;2023-06-14T14:32:58;27.20;74.10
33645;DHT22;19986;48.190;16.366;2023-06-14T14:35:24;27.50;74.00
33645;DHT22;19986;48.190;16.366;2023-06-14T14:37:52;27.80;74.10
33645;DHT22;19986;48.190;16.366;2023-06-14T14:40:18;27.80;74.00
33645;DHT22;19986;48.190;16.366;2023-06-14T14:42:44;27.70;74.30
33645;DHT22;19986;48.190;16.366;2023-06-14T14:45:10;27.50;74.50
33645;DHT22;19986;48.190;16.366;2023-06-14T14:47:36;27.40;74.60
33645;DHT22;19986;48.190;16.366;2023-06-14T14:50:02;27.40;74.60
33645;DHT22;19986;48.190;16.366;2023-06-14T14:52:28;27.30;74.50
33645;DHT22;19986;48.190;16.366;2023-06-14T14:54:54;27.00;75.00
33645;DHT22;19986;48.190;16.366;2023-06-14T14:57:22;26.90;75.50
33645;DHT22;19986;48.190;16.366;2023-06-14T14:59:47;26.90;75.50
33645;DHT22;19986;48.190;16.366;2023-06-14T15:02:13;26.90;75.30
33645;DHT22;19986;48.190;16.366;2023-06-14T15:04:39;26.80;75.40
33645;DHT22;19986;48.190;16.366;2023-06-14T15:07:05;26.60;75.30
33645;DHT22;19986;48.190;16.366;2023-06-14T15:09:32;26.50;75.50
33645;DHT22;19986;48.190;16.366;2023-06-14T15:11:58;26.50;75.60
33645;DHT22;19986;48.190;16.366;2023-06-14T15:14:24;26.50;75.70
33645;DHT22;19986;48.190;16.366;2023-06-14T15:16:50;26.50;75.70
33645;DHT22;19986;48.190;16.366;2023-06-14T15:19:17;26.40;75.70
33645;DHT22;19986;48.190;16.366;2023-06-14T15:21:43;26.30;75.90
33645;DHT22;19986;48.190;16.366;2023-06-14T15:24:09;26.20;76.10
33645;DHT22;19986;48.190;16.366;2023-06-14T15:26:35;26.10;76.50
33645;DHT22;19986;48.190;16.366;2023-06-14T15:29:01;26.20;76.40
33645;DHT22;19986;48.190;16.366;2023-06-14T15:31:27;26.50;76.30
33645;DHT22;19986;48.190;16.366;2023-06-14T15:33:54;26.70;75.80
33645;DHT22;19986;48.190;16.366;2023-06-14T15:36:20;26.80;75.30